createdAt,value
2023-05-10T00:01:10.224Z,100741.20
2023-05-10T00:03:37.419Z,100740.20
2023-05-10T00:06:04.645Z,100739.19
2023-05-10T00:08:31.819Z,100741.13
2023-05-10T00:10:58.970Z,100741.04
2023-05-10T00:13:26.332Z,100738.08
2023-05-10T00:15:53.540Z,100736.27
2023-05-10T00:18:20.726Z,100739.95
2023-05-10T00:20:48.039Z,100733.48
2023-05-10T00:23:15.164Z,100728.11
2023-05-10T00:25:42.236Z,100728.41
2023-05-10T00:28:09.356Z,100725.54
2023-05-10T00:30:38.274Z,100726.85
2023-05-10T00:33:05.409Z,100726.27
2023-05-10T00:35:32.554Z,100722.75
2023-05-10T00:37:59.738Z,100722.71
2023-05-10T00:40:26.985Z,100721.42
2023-05-10T00:42:58.280Z,100720.55
2023-05-10T00:45:25.973Z,100718.31
2023-05-10T00:47:56.253Z,100713.58
2023-05-10T00:50:24.657Z,100715.27
2023-05-10T00:52:51.796Z,100708.95
2023-05-10T00:55:19.602Z,100706.46
2023-05-10T00:57:46.793Z,100706.35
2023-05-10T01:00:19.085Z,100704.55
2023-05-10T01:02:47.506Z,100708.64
2023-05-10T01:05:15.041Z,100703.84
2023-05-10T01:07:42.308Z,100706.22
2023-05-10T01:10:11.593Z,100705.70
2023-05-10T01:12:41.950Z,100702.98
2023-05-10T01:15:10.210Z,100701.83
2023-05-10T01:17:40.714Z,100699.71
2023-05-10T01:20:10.440Z,100695.02
2023-05-10T01:23:16.017Z,100694.45
2023-05-10T01:26:22.266Z,100693.24
2023-05-10T01:29:07.766Z,100690.62
2023-05-10T01:32:01.169Z,100692.69
2023-05-10T01:34:43.725Z,100694.01
2023-05-10T01:37:19.564Z,100695.05
2023-05-10T01:40:19.752Z,100691.66
2023-05-10T01:42:52.929Z,100689.53
2023-05-10T01:45:30.151Z,100691.86
2023-05-10T01:48:08.486Z,100691.46
2023-05-10T01:50:37.823Z,100689.84
2023-05-10T01:53:09.487Z,100691.05
2023-05-10T01:55:44.228Z,100689.80
2023-05-10T01:58:16.125Z,100687.86
2023-05-10T02:00:48.518Z,100690.17
2023-05-10T02:03:17.252Z,100684.37
2023-05-10T02:05:46.619Z,100685.20
2023-05-10T02:08:15.777Z,100688.11
2023-05-10T02:10:46.059Z,100686.05
2023-05-10T02:13:15.279Z,100685.98
2023-05-10T02:15:44.036Z,100680.02
2023-05-10T02:18:13.823Z,100681.89
2023-05-10T02:20:41.490Z,100681.46
2023-05-10T02:23:10.146Z,100679.58
2023-05-10T02:25:39.923Z,100682.61
2023-05-10T02:28:08.487Z,100679.86
2023-05-10T02:30:37.821Z,100679.70
2023-05-10T02:33:06.621Z,100680.30
2023-05-10T02:35:35.061Z,100676.07
2023-05-10T02:38:03.296Z,100676.35
2023-05-10T02:40:32.029Z,100677.00
2023-05-10T02:43:00.500Z,100677.29
2023-05-10T02:45:32.243Z,100677.44
2023-05-10T02:48:00.642Z,100676.66
2023-05-10T02:50:30.133Z,100676.93
2023-05-10T02:53:03.181Z,100674.75
2023-05-10T02:55:37.982Z,100672.55
2023-05-10T02:58:05.398Z,100677.95
2023-05-10T03:00:32.691Z,100677.32
2023-05-10T03:02:59.954Z,100677.00
2023-05-10T03:05:27.634Z,100678.16
2023-05-10T03:07:55.484Z,100676.08
2023-05-10T03:10:29.155Z,100679.63
2023-05-10T03:13:03.035Z,100683.37
2023-05-10T03:15:39.125Z,100685.41
2023-05-10T03:18:12.137Z,100689.34
2023-05-10T03:20:44.629Z,100686.40
2023-05-10T03:23:23.759Z,100689.98
2023-05-10T03:25:52.018Z,100689.63
2023-05-10T03:28:19.898Z,100682.88
2023-05-10T03:30:48.241Z,100681.69
2023-05-10T03:33:15.556Z,100679.85
2023-05-10T03:35:46.884Z,100674.86
2023-05-10T03:38:14.403Z,100676.09
2023-05-10T03:40:41.789Z,100676.14
2023-05-10T03:43:09.213Z,100675.80
2023-05-10T03:45:36.623Z,100674.92
2023-05-10T03:48:04.203Z,100674.59
2023-05-10T03:50:31.283Z,100674.42
2023-05-10T03:52:58.706Z,100667.75
2023-05-10T03:55:25.817Z,100672.54
2023-05-10T03:57:54.882Z,100672.80
2023-05-10T04:00:22.501Z,100668.60
2023-05-10T04:02:50.739Z,100670.78
2023-05-10T04:05:20.225Z,100667.25
2023-05-10T04:07:48.267Z,100668.55
2023-05-10T04:10:15.793Z,100667.67
2023-05-10T04:12:43.295Z,100668.69
2023-05-10T04:15:10.772Z,100665.97
2023-05-10T04:17:38.701Z,100665.35
2023-05-10T04:20:06.673Z,100664.30
2023-05-10T04:22:33.848Z,100661.14
2023-05-10T04:25:00.843Z,100664.66
2023-05-10T04:27:28.204Z,100667.16
2023-05-10T04:29:55.421Z,100666.35
2023-05-10T04:32:22.593Z,100670.44
2023-05-10T04:34:50.119Z,100670.19
2023-05-10T04:37:17.162Z,100667.33
2023-05-10T04:39:44.415Z,100666.64
2023-05-10T04:42:12.466Z,100667.24
2023-05-10T04:44:39.693Z,100663.77
2023-05-10T04:47:06.838Z,100664.02
2023-05-10T04:49:33.927Z,100661.83
2023-05-10T04:52:01.003Z,100661.11
2023-05-10T04:54:28.124Z,100665.66
2023-05-10T04:56:55.295Z,100666.98
2023-05-10T04:59:22.386Z,100666.58
2023-05-10T05:01:49.558Z,100668.16
2023-05-10T05:04:16.888Z,100664.10
2023-05-10T05:06:44.223Z,100661.64
2023-05-10T05:09:11.301Z,100656.92
2023-05-10T05:11:38.315Z,100657.92
2023-05-10T05:14:05.352Z,100656.43
2023-05-10T05:16:33.221Z,100661.16
2023-05-10T05:19:00.964Z,100656.39
2023-05-10T05:21:28.192Z,100654.75
2023-05-10T05:23:55.423Z,100655.13
2023-05-10T05:26:22.496Z,100660.77
2023-05-10T05:28:51.053Z,100658.42
2023-05-10T05:31:18.890Z,100658.58
2023-05-10T05:33:46.119Z,100661.05
2023-05-10T05:36:13.348Z,100663.07
2023-05-10T05:38:40.417Z,100664.01
2023-05-10T05:41:07.674Z,100660.04
2023-05-10T05:43:36.730Z,100659.37
2023-05-10T05:46:05.359Z,100664.04
2023-05-10T05:48:32.719Z,100660.46
2023-05-10T05:51:00.275Z,100659.54
2023-05-10T05:53:27.566Z,100656.92
2023-05-10T05:55:56.311Z,100647.91
2023-05-10T05:58:23.882Z,100649.13
2023-05-10T06:00:51.610Z,100644.73
2023-05-10T06:03:19.769Z,100645.38
2023-05-10T06:05:47.488Z,100645.16
2023-05-10T06:08:14.620Z,100647.52
2023-05-10T06:10:41.729Z,100647.09
2023-05-10T06:13:08.922Z,100652.54
2023-05-10T06:15:36.042Z,100642.59
2023-05-10T06:18:03.326Z,100645.92
2023-05-10T06:20:32.537Z,100651.45
2023-05-10T06:23:00.058Z,100654.96
2023-05-10T06:25:27.250Z,100651.39
2023-05-10T06:27:58.344Z,100646.95
2023-05-10T06:30:28.543Z,100642.73
2023-05-10T06:32:56.529Z,100642.03
2023-05-10T06:35:23.820Z,100642.10
2023-05-10T06:37:51.914Z,100643.79
2023-05-10T06:40:19.706Z,100643.55
2023-05-10T06:42:47.762Z,100651.60
2023-05-10T06:45:16.201Z,100641.35
2023-05-10T06:47:43.951Z,100646.70
2023-05-10T06:50:12.606Z,100648.44
2023-05-10T06:52:40.221Z,100645.83
2023-05-10T06:55:07.918Z,100646.27
2023-05-10T06:57:35.128Z,100646.18
2023-05-10T07:00:05.209Z,100652.35
2023-05-10T07:02:32.584Z,100647.29
2023-05-10T07:05:02.502Z,100642.56
2023-05-10T07:07:30.859Z,100645.60
2023-05-10T07:09:58.769Z,100648.91
2023-05-10T07:12:26.512Z,100646.58
2023-05-10T07:14:53.796Z,100646.18
2023-05-10T07:17:21.171Z,100650.08
2023-05-10T07:19:48.369Z,100650.77
2023-05-10T07:22:17.734Z,100652.27
2023-05-10T07:24:44.926Z,100643.65
2023-05-10T07:27:12.080Z,100647.94
2023-05-10T07:29:39.082Z,100644.88
2023-05-10T07:32:07.426Z,100648.04
2023-05-10T07:34:34.526Z,100649.71
2023-05-10T07:37:01.728Z,100650.36
2023-05-10T07:39:28.920Z,100644.81
2023-05-10T07:41:56.866Z,100652.33
2023-05-10T07:44:24.592Z,100647.95
2023-05-10T07:46:51.899Z,100646.73
2023-05-10T07:49:19.107Z,100639.10
2023-05-10T07:51:46.355Z,100650.52
2023-05-10T07:54:13.823Z,100655.30
2023-05-10T07:56:45.822Z,100639.27
2023-05-10T07:59:16.710Z,100643.71
2023-05-10T08:01:44.386Z,100634.79
2023-05-10T08:04:12.613Z,100632.58
2023-05-10T08:06:40.738Z,100626.84
2023-05-10T08:09:07.960Z,100639.20
2023-05-10T08:11:35.362Z,100631.10
2023-05-10T08:14:02.599Z,100626.71
2023-05-10T08:16:30.104Z,100621.55
2023-05-10T08:18:57.489Z,100624.92
2023-05-10T08:21:24.743Z,100628.23
2023-05-10T08:23:51.881Z,100622.02
2023-05-10T08:26:18.995Z,100618.48
2023-05-10T08:28:46.057Z,100624.55
2023-05-10T08:31:13.490Z,100630.23
2023-05-10T08:33:42.164Z,100628.41
2023-05-10T08:36:10.132Z,100628.17
2023-05-10T08:38:38.949Z,100618.75
2023-05-10T08:41:07.232Z,100625.77
2023-05-10T08:43:37.157Z,100631.84
2023-05-10T08:46:08.837Z,100623.83
2023-05-10T08:48:36.627Z,100625.27
2023-05-10T08:51:05.368Z,100621.89
2023-05-10T08:53:36.501Z,100631.71
2023-05-10T08:56:03.779Z,100642.38
2023-05-10T08:58:31.954Z,100627.70
2023-05-10T09:01:00.443Z,100615.95
2023-05-10T09:03:27.676Z,100612.18
2023-05-10T09:05:56.875Z,100621.23
2023-05-10T09:08:27.998Z,100611.58
2023-05-10T09:10:58.413Z,100611.84
2023-05-10T09:13:25.849Z,100617.88
2023-05-10T09:15:54.128Z,100630.61
2023-05-10T09:18:21.374Z,100616.71
2023-05-10T09:20:49.935Z,100611.94
2023-05-10T09:23:17.102Z,100613.80
2023-05-10T09:25:44.286Z,100613.90
2023-05-10T09:28:12.286Z,100624.61
2023-05-10T09:30:39.856Z,100615.45
2023-05-10T09:33:07.092Z,100613.60
2023-05-10T09:35:34.786Z,100611.31
2023-05-10T09:38:05.971Z,100608.05
2023-05-10T09:40:33.848Z,100609.23
2023-05-10T09:43:07.927Z,100608.52
2023-05-10T09:45:38.531Z,100603.53
2023-05-10T09:48:07.154Z,100594.81
2023-05-10T09:50:35.292Z,100581.23
2023-05-10T09:53:04.924Z,100595.55
2023-05-10T09:55:45.987Z,100598.83
2023-05-10T09:58:14.609Z,100589.86
2023-05-10T10:00:46.177Z,100594.63
2023-05-10T10:03:15.919Z,100590.45
2023-05-10T10:05:44.697Z,100596.28
2023-05-10T10:08:13.402Z,100584.20
2023-05-10T10:10:41.773Z,100568.34
2023-05-10T10:13:09.521Z,100562.76
2023-05-10T10:15:37.140Z,100559.52
2023-05-10T10:18:06.243Z,100559.41
2023-05-10T10:20:33.389Z,100559.19
2023-05-10T10:23:00.590Z,100557.73
2023-05-10T10:25:27.805Z,100551.77
2023-05-10T10:27:55.126Z,100553.30
2023-05-10T10:31:02.611Z,100553.13
2023-05-10T10:33:55.549Z,100543.88
2023-05-10T10:36:22.805Z,100555.50
2023-05-10T10:38:49.916Z,100544.84
2023-05-10T10:41:37.093Z,100548.83
2023-05-10T10:44:30.459Z,100550.63
2023-05-10T10:47:13.243Z,100546.30
2023-05-10T10:50:04.864Z,100544.54
2023-05-10T10:52:39.526Z,100529.91
2023-05-10T10:55:07.784Z,100524.17
2023-05-10T10:58:02.087Z,100536.86
2023-05-10T11:00:33.165Z,100529.02
2023-05-10T11:03:03.735Z,100517.03
2023-05-10T11:05:34.005Z,100517.89
2023-05-10T11:08:07.422Z,100527.51
2023-05-10T11:10:34.740Z,100516.91
2023-05-10T11:13:06.879Z,100519.55
2023-05-10T11:15:36.677Z,100518.77
2023-05-10T11:18:22.718Z,100518.77
2023-05-10T11:20:54.065Z,100531.95
2023-05-10T11:23:22.147Z,100511.45
2023-05-10T11:25:51.132Z,100510.55
2023-05-10T11:28:20.445Z,100517.52
2023-05-10T11:30:48.260Z,100515.35
2023-05-10T11:33:20.541Z,100503.71
2023-05-10T11:35:48.041Z,100495.26
2023-05-10T11:38:15.320Z,100501.11
2023-05-10T11:40:42.975Z,100497.79
2023-05-10T11:43:11.751Z,100502.14
2023-05-10T11:45:39.347Z,100504.69
2023-05-10T11:48:06.522Z,100501.44
2023-05-10T11:50:33.897Z,100507.39
2023-05-10T11:53:01.413Z,100501.39
2023-05-10T11:55:28.525Z,100496.44
2023-05-10T11:57:56.025Z,100490.23
2023-05-10T12:00:23.200Z,100482.17
2023-05-10T12:02:51.147Z,100490.08
2023-05-10T12:05:18.832Z,100495.31
2023-05-10T12:07:46.021Z,100494.60
2023-05-10T12:10:19.344Z,100491.73
2023-05-10T12:12:50.737Z,100512.95
2023-05-10T12:15:22.947Z,100506.60
2023-05-10T12:17:51.609Z,100492.09
2023-05-10T12:20:21.153Z,100494.00
2023-05-10T12:22:51.217Z,100504.98
2023-05-10T12:25:19.401Z,100487.86
2023-05-10T12:27:50.712Z,100498.65
2023-05-10T12:30:22.398Z,100502.75
2023-05-10T12:32:49.462Z,100502.79
2023-05-10T12:35:17.520Z,100495.92
2023-05-10T12:37:44.761Z,100492.91
2023-05-10T12:40:12.998Z,100494.35
2023-05-10T12:42:41.174Z,100492.92
2023-05-10T12:45:10.005Z,100498.77
2023-05-10T12:47:37.436Z,100496.55
2023-05-10T12:50:05.725Z,100497.38
2023-05-10T12:52:33.620Z,100501.83
2023-05-10T12:55:01.246Z,100494.41
2023-05-10T12:57:28.927Z,100483.42
2023-05-10T12:59:56.794Z,100484.67
2023-05-10T13:02:24.329Z,100476.13
2023-05-10T13:04:51.906Z,100473.84
2023-05-10T13:07:19.165Z,100477.61
2023-05-10T13:09:46.497Z,100468.69
2023-05-10T13:12:14.057Z,100481.91
2023-05-10T13:14:41.808Z,100474.83
2023-05-10T13:17:09.181Z,100468.72
2023-05-10T13:19:36.449Z,100473.33
2023-05-10T13:22:04.144Z,100463.55
2023-05-10T13:24:31.409Z,100477.91
2023-05-10T13:26:59.543Z,100476.06
2023-05-10T13:29:27.105Z,100477.08
2023-05-10T13:31:54.461Z,100476.48
2023-05-10T13:34:25.320Z,100478.27
2023-05-10T13:36:54.169Z,100466.33
2023-05-10T13:39:21.802Z,100466.88
2023-05-10T13:41:49.207Z,100464.23
2023-05-10T13:44:16.617Z,100461.41
2023-05-10T13:46:44.626Z,100462.30
2023-05-10T13:49:11.976Z,100461.31
2023-05-10T13:51:39.421Z,100458.16
2023-05-10T13:54:06.887Z,100462.09
2023-05-10T13:56:34.570Z,100459.29
2023-05-10T13:59:02.057Z,100451.65
2023-05-10T14:01:29.271Z,100449.64
2023-05-10T14:03:56.571Z,100444.74
2023-05-10T14:06:23.791Z,100451.98
2023-05-10T14:08:50.971Z,100450.95
2023-05-10T14:11:18.611Z,100446.29
2023-05-10T14:13:45.755Z,100444.36
2023-05-10T14:16:13.166Z,100441.02
2023-05-10T14:18:41.003Z,100441.11
2023-05-10T14:21:08.184Z,100440.20
2023-05-10T14:23:35.384Z,100440.42
2023-05-10T14:26:02.905Z,100441.17
2023-05-10T14:28:30.518Z,100431.94
2023-05-10T14:30:57.805Z,100432.04
2023-05-10T14:33:25.158Z,100439.70
2023-05-10T14:35:52.335Z,100436.98
2023-05-10T14:38:19.548Z,100441.17
2023-05-10T14:40:46.757Z,100437.97
2023-05-10T14:43:13.882Z,100437.41
2023-05-10T14:45:41.480Z,100437.14
2023-05-10T14:48:12.311Z,100428.11
2023-05-10T14:50:40.626Z,100429.92
2023-05-10T14:53:08.116Z,100434.80
2023-05-10T14:55:36.303Z,100431.26
2023-05-10T14:58:04.181Z,100429.41
2023-05-10T15:00:32.279Z,100429.34
2023-05-10T15:03:00.188Z,100435.09
2023-05-10T15:05:27.760Z,100433.27
2023-05-10T15:07:55.810Z,100438.16
2023-05-10T15:10:23.563Z,100436.86
2023-05-10T15:12:51.480Z,100437.70
2023-05-10T15:15:19.021Z,100430.82
2023-05-10T15:17:47.070Z,100427.30
2023-05-10T15:20:14.609Z,100430.90
2023-05-10T15:22:42.212Z,100432.58
2023-05-10T15:25:09.554Z,100431.67
2023-05-10T15:27:36.779Z,100430.43
2023-05-10T15:30:04.325Z,100426.66
2023-05-10T15:32:31.478Z,100437.59
2023-05-10T15:34:59.320Z,100435.65
2023-05-10T15:37:27.004Z,100432.15
2023-05-10T15:39:55.809Z,100433.52
2023-05-10T15:42:24.610Z,100430.28
2023-05-10T15:44:52.400Z,100426.33
2023-05-10T15:47:19.541Z,100430.21
2023-05-10T15:49:47.403Z,100436.49
2023-05-10T15:52:18.087Z,100430.62
2023-05-10T15:54:45.567Z,100426.55
2023-05-10T15:57:12.849Z,100422.94
2023-05-10T15:59:41.790Z,100421.83
2023-05-10T16:02:12.939Z,100425.95
2023-05-10T16:04:40.296Z,100426.38
2023-05-10T16:07:07.575Z,100425.16
2023-05-10T16:09:34.821Z,100429.16
2023-05-10T16:12:03.475Z,100426.67
2023-05-10T16:14:30.863Z,100427.54
2023-05-10T16:16:58.229Z,100426.19
2023-05-10T16:19:27.192Z,100427.39
2023-05-10T16:21:57.210Z,100431.47
2023-05-10T16:24:26.609Z,100428.51
2023-05-10T16:26:53.888Z,100426.91
2023-05-10T16:29:21.722Z,100436.54
2023-05-10T16:31:48.840Z,100434.41
2023-05-10T16:34:24.440Z,100435.10
2023-05-10T16:36:51.756Z,100438.33
2023-05-10T16:39:19.047Z,100439.60
2023-05-10T16:41:46.664Z,100437.66
2023-05-10T16:44:14.548Z,100439.70
2023-05-10T16:46:42.008Z,100443.20
2023-05-10T16:49:10.158Z,100447.45
2023-05-10T16:51:38.067Z,100444.96
2023-05-10T16:54:05.381Z,100442.07
2023-05-10T16:56:33.017Z,100448.31
2023-05-10T16:59:00.204Z,100449.52
2023-05-10T17:01:27.892Z,100447.86
2023-05-10T17:03:55.330Z,100448.56
2023-05-10T17:06:22.650Z,100456.38
2023-05-10T17:08:49.894Z,100454.73
2023-05-10T17:11:17.251Z,100454.85
2023-05-10T17:13:44.450Z,100456.52
2023-05-10T17:16:12.575Z,100459.92
2023-05-10T17:18:42.113Z,100464.67
2023-05-10T17:21:10.168Z,100463.76
2023-05-10T17:23:37.529Z,100468.86
2023-05-10T17:26:06.419Z,100468.88
2023-05-10T17:28:36.633Z,100471.64
2023-05-10T17:31:04.464Z,100472.15
2023-05-10T17:33:32.311Z,100475.96
2023-05-10T17:35:59.600Z,100480.27
2023-05-10T17:38:26.779Z,100480.41
2023-05-10T17:40:55.462Z,100484.84
2023-05-10T17:43:23.667Z,100483.55
2023-05-10T17:45:51.325Z,100487.14
2023-05-10T17:48:18.717Z,100494.35
2023-05-10T17:50:45.943Z,100496.89
2023-05-10T17:53:13.170Z,100499.25
2023-05-10T17:55:41.800Z,100501.77
2023-05-10T17:58:19.853Z,100506.36
2023-05-10T18:00:47.022Z,100505.90
2023-05-10T18:03:16.665Z,100507.47
2023-05-10T18:05:45.781Z,100511.12
2023-05-10T18:08:15.968Z,100511.30
2023-05-10T18:10:43.569Z,100510.73
2023-05-10T18:13:10.686Z,100512.84
2023-05-10T18:15:38.711Z,100514.60
2023-05-10T18:18:06.488Z,100516.55
2023-05-10T18:20:34.132Z,100520.34
2023-05-10T18:23:01.493Z,100518.45
2023-05-10T18:25:28.704Z,100524.42
2023-05-10T18:27:56.326Z,100528.11
2023-05-10T18:30:23.746Z,100532.21
2023-05-10T18:32:51.371Z,100533.95
2023-05-10T18:35:18.995Z,100538.89
2023-05-10T18:37:46.316Z,100539.10
2023-05-10T18:40:14.854Z,100545.27
2023-05-10T18:42:42.107Z,100551.46
2023-05-10T18:45:09.464Z,100552.50
2023-05-10T18:47:39.172Z,100557.98
2023-05-10T18:50:08.856Z,100558.16
2023-05-10T18:52:37.981Z,100560.14
2023-05-10T18:55:06.567Z,100561.16
2023-05-10T18:57:40.050Z,100559.39
2023-05-10T19:00:12.429Z,100565.08
2023-05-10T19:02:40.649Z,100567.82
2023-05-10T19:05:08.944Z,100571.65
2023-05-10T19:07:37.524Z,100572.29
2023-05-10T19:10:06.412Z,100575.96
2023-05-10T19:12:34.118Z,100575.45
2023-05-10T19:15:01.300Z,100577.96
2023-05-10T19:17:31.263Z,100577.21
2023-05-10T19:20:00.115Z,100580.59
2023-05-10T19:25:01.002Z,100577.63
2023-05-10T19:27:28.401Z,100575.52
2023-05-10T19:29:56.763Z,100576.66
2023-05-10T19:32:25.265Z,100576.00
2023-05-10T19:34:52.859Z,100577.73
2023-05-10T19:37:20.442Z,100579.40
2023-05-10T19:39:47.505Z,100586.17
2023-05-10T19:42:14.698Z,100586.45
2023-05-10T19:44:41.704Z,100582.66
2023-05-10T19:47:09.368Z,100582.98
2023-05-10T19:49:36.620Z,100580.49
2023-05-10T19:52:07.986Z,100585.35
2023-05-10T19:54:35.022Z,100584.77
2023-05-10T19:57:02.144Z,100585.05
2023-05-10T19:59:29.288Z,100586.05
2023-05-10T20:01:56.353Z,100585.91
2023-05-10T20:04:23.558Z,100582.86
2023-05-10T20:06:50.628Z,100582.02
2023-05-10T20:09:17.741Z,100586.02
2023-05-10T20:11:44.807Z,100585.41
2023-05-10T20:14:11.990Z,100589.05
2023-05-10T20:16:39.092Z,100589.73
2023-05-10T20:19:06.429Z,100589.16
2023-05-10T20:21:33.646Z,100590.38
2023-05-10T20:24:00.719Z,100588.05
2023-05-10T20:26:27.794Z,100589.12
2023-05-10T20:28:54.826Z,100589.27
2023-05-10T20:31:22.064Z,100589.80
2023-05-10T20:33:49.225Z,100592.55
2023-05-10T20:36:16.848Z,100593.31
2023-05-10T20:38:43.897Z,100594.60
2023-05-10T20:41:11.000Z,100596.11
2023-05-10T20:43:38.045Z,100595.63
2023-05-10T20:46:05.619Z,100595.20
2023-05-10T20:48:33.173Z,100598.40
2023-05-10T20:51:02.172Z,100596.33
2023-05-10T20:53:30.016Z,100599.17
2023-05-10T20:55:57.082Z,100601.23
2023-05-10T20:58:24.146Z,100603.16
2023-05-10T21:00:51.301Z,100603.92
2023-05-10T21:03:18.373Z,100604.92
2023-05-10T21:05:45.497Z,100607.84
2023-05-10T21:08:12.601Z,100608.85
2023-05-10T21:10:39.633Z,100612.65
2023-05-10T21:13:06.737Z,100610.35
2023-05-10T21:15:33.789Z,100614.17
2023-05-10T21:18:00.908Z,100613.03
2023-05-10T21:20:28.165Z,100616.63
2023-05-10T21:22:55.232Z,100616.94
2023-05-10T21:25:23.243Z,100620.25
2023-05-10T21:27:50.340Z,100613.44
2023-05-10T21:30:18.168Z,100612.41
2023-05-10T21:32:45.296Z,100612.71
2023-05-10T21:35:12.344Z,100615.00
2023-05-10T21:37:39.461Z,100613.73
2023-05-10T21:40:06.829Z,100614.23
2023-05-10T21:42:33.902Z,100618.14
2023-05-10T21:45:01.153Z,100615.05
2023-05-10T21:47:28.487Z,100619.33
2023-05-10T21:49:55.659Z,100621.77
2023-05-10T21:52:22.801Z,100623.30
2023-05-10T21:54:50.004Z,100622.51
2023-05-10T21:57:16.966Z,100625.43
2023-05-10T21:59:44.041Z,100626.19
2023-05-10T22:02:11.211Z,100630.30
2023-05-10T22:04:38.383Z,100629.09
2023-05-10T22:07:05.713Z,100629.86
2023-05-10T22:09:32.797Z,100630.45
2023-05-10T22:11:59.836Z,100630.02
2023-05-10T22:14:27.003Z,100635.23
2023-05-10T22:16:54.109Z,100634.35
2023-05-10T22:19:21.282Z,100634.21
2023-05-10T22:21:48.372Z,100637.56
2023-05-10T22:24:15.471Z,100640.12
2023-05-10T22:26:42.435Z,100639.71
2023-05-10T22:29:09.425Z,100643.84
2023-05-10T22:31:36.640Z,100646.23
2023-05-10T22:34:04.142Z,100646.87
2023-05-10T22:36:31.751Z,100650.83
2023-05-10T22:38:58.762Z,100652.37
2023-05-10T22:41:25.758Z,100652.27
2023-05-10T22:43:52.840Z,100657.23
2023-05-10T22:46:19.912Z,100659.19
2023-05-10T22:48:47.164Z,100659.65
2023-05-10T22:51:14.321Z,100667.20
2023-05-10T22:53:41.619Z,100661.00
2023-05-10T22:56:08.938Z,100663.48
2023-05-10T22:58:36.101Z,100662.37
2023-05-10T23:01:03.385Z,100663.46
2023-05-10T23:03:30.785Z,100666.59
2023-05-10T23:05:58.054Z,100664.70
2023-05-10T23:08:25.397Z,100667.50
2023-05-10T23:10:52.770Z,100666.43
2023-05-10T23:13:21.196Z,100669.56
2023-05-10T23:15:48.506Z,100667.49
2023-05-10T23:18:15.836Z,100666.46
2023-05-10T23:20:43.363Z,100671.27
2023-05-10T23:23:11.404Z,100666.64
2023-05-10T23:25:38.743Z,100668.02
2023-05-10T23:28:05.967Z,100671.98
2023-05-10T23:30:33.182Z,100666.23
2023-05-10T23:33:00.479Z,100668.52
2023-05-10T23:35:27.773Z,100672.63
2023-05-10T23:37:55.372Z,100671.89
2023-05-10T23:40:22.731Z,100668.36
2023-05-10T23:42:49.978Z,100674.76
2023-05-10T23:45:17.311Z,100669.73
2023-05-10T23:47:44.620Z,100670.02
2023-05-10T23:50:11.917Z,100667.86
2023-05-10T23:52:39.129Z,100669.70
2023-05-10T23:55:07.144Z,100676.38
2023-05-10T23:57:34.249Z,100672.38
